Hlavní strana
METAR-TAF:

METAR-TAF

Letiště :

Jämsä, Finsko

zeměpisná šířka: 61-51N, zeměpisná délka: 024-48E, výška: 143 m

Aktuální stav počasí

Zpráva byla vytvořena před 43 minutami, v 16:50 UTC
Severní vítr 11 kt, proměnlivý mezi severozápadním a severoseverovýchodním
Teplota -6°C
Vlhkost vzduchu 79%
Tlak 1001 hPa
Viditelnost 10 km a více
Polojasno ve výšce 1600 ft
Zataženo ve výšce 3500 ft
slabé sněžení

METAR: EFHA 071650Z AUTO 35011KT 320V020 9999 -SN SCT016 OVC035 M06/M09 Q1001

Čas: 19:33 (17:33 UTC)


TAF: chybějící

Stav a předpovědi počasí z více než 4 000 letišť (zprávy METAR a TAF).

Červené a žluté tečky na mapě představují dostupné meteorologické stanice.

Když kurzor umístíte na tečku, zobrazí se název stanice.

Pak kliknutím zobrazíte stav a předpověď počasí.

Chcete-li změnit mapu, kliknutím na zelené tlačítko se znaménkem +mapu přiblížíte, kliknutím na zelené tlačítko se znaménkem – mapu oddálíte a kliknutím na zelené šipky přejdete na sousední mapy.


METAR-TAF: